Gaspé Airport, Quebec

Past 24 Hour Conditions

This table is a summary of hourly weather conditions for the past 24 hours. This summary includes the following parameters: temperature, humidity, dew point, wind speed and direction, air pressure, visibility and/or wind chill and humidex.
Date / Time
(EDT)
Conditions Temp (°F) Humidity (%) Dew Point (°F) Wind (mph) Pressure (inches) Vis (mi) Wind Chill
02 October 2014
10:00 Mainly Sunny 49 70 39 N 2 30.4 15 *
9:00 Mainly Sunny 43 79 37 SW 3 30.4 15 *
8:00 Mainly Sunny 37 94 35 SW 3 30.4 15 *
7:00 Mainly Sunny 30   97 29 NW 3 30.3 15 27
6:00 Clear 30   97 29 WSW 3 30.3 15 26
5:00 Clear 30   97 29 WSW 2 30.3 15 28
4:00 Clear 30   98 30 W 2 30.3 15 28
3:00 Clear 30   98 30 WSW 3 30.3 15 27
2:00 Clear 30   97 30 W 3 30.3 15 27
1:00 Clear 32 98 32 W 2 30.3 15 *
00:00 Clear 32 96 30 WNW 3 30.3 15 29
01 October 2014
23:00 Clear 33 97 32 WSW 4 30.3 15 *
22:00 Clear 33 95 32 S 3 30.3 15 *
21:00 Clear 36 95 35 NW 3 30.3 15 *
20:00 Clear 37 92 34 WSW 3 30.3 15 *
19:00 Clear 42 80 37 NE 3 30.3 15 *
18:00 Clear 47 71 38 ENE 4 30.2 15 *
17:00 Sunny 51 64 39 ENE 7 30.2 15 *
16:00 Mainly Sunny 52 60 39 SE 8 30.2 15 *
15:00 Mainly Sunny 55   58 40 E 10 30.2 15 *
14:00 Mainly Sunny 54 59 41 E 12 30.2 15 *
13:00 Mainly Sunny 54 57 40 E 11 30.2 15 *
12:00 Mainly Sunny 55   55 39 calm 30.2 15 *
11:00 Mainly Sunny 53 54 37 SE 4 30.2 15 *
10:00 Sunny 52 67 41 W 2 30.2 15 *
N/A
Not available
 ↑ 
Highest temperature
 ↓ 
Lowest temperature
*
Value not significant.

If you require additional historical weather information, please visit Climate Data Online.